sensor_id;sensor_type;location;lat;lon;timestamp;P1;durP1;ratioP1;P2;durP2;ratioP2
10335;SDS011;5213;53.548;9.930;2023-02-01T00:00:12;11.40;;;3.00;;
10335;SDS011;5213;53.548;9.930;2023-02-01T00:02:39;17.10;;;3.53;;
10335;SDS011;5213;53.548;9.930;2023-02-01T00:05:08;15.48;;;3.42;;
10335;SDS011;5213;53.548;9.930;2023-02-01T00:07:35;16.15;;;3.40;;
10335;SDS011;5213;53.548;9.930;2023-02-01T00:10:01;15.02;;;3.30;;
10335;SDS011;5213;53.548;9.930;2023-02-01T00:12:28;13.98;;;3.60;;
10335;SDS011;5213;53.548;9.930;2023-02-01T00:14:54;13.82;;;4.22;;
10335;SDS011;5213;53.548;9.930;2023-02-01T00:17:20;11.52;;;3.28;;
10335;SDS011;5213;53.548;9.930;2023-02-01T00:19:46;13.48;;;2.97;;
10335;SDS011;5213;53.548;9.930;2023-02-01T00:22:12;19.42;;;3.67;;
10335;SDS011;5213;53.548;9.930;2023-02-01T00:24:38;13.02;;;3.08;;
10335;SDS011;5213;53.548;9.930;2023-02-01T00:27:04;16.35;;;3.63;;
10335;SDS011;5213;53.548;9.930;2023-02-01T00:29:30;18.30;;;3.95;;
10335;SDS011;5213;53.548;9.930;2023-02-01T00:31:56;18.85;;;3.67;;
10335;SDS011;5213;53.548;9.930;2023-02-01T00:34:22;15.80;;;3.08;;
10335;SDS011;5213;53.548;9.930;2023-02-01T00:36:48;11.70;;;2.80;;
10335;SDS011;5213;53.548;9.930;2023-02-01T00:39:14;21.73;;;3.80;;
10335;SDS011;5213;53.548;9.930;2023-02-01T00:41:40;18.40;;;4.22;;
10335;SDS011;5213;53.548;9.930;2023-02-01T00:44:07;12.18;;;3.53;;
10335;SDS011;5213;53.548;9.930;2023-02-01T00:46:33;23.92;;;4.20;;
10335;SDS011;5213;53.548;9.930;2023-02-01T00:48:59;18.73;;;3.65;;
10335;SDS011;5213;53.548;9.930;2023-02-01T00:51:26;15.57;;;3.53;;
10335;SDS011;5213;53.548;9.930;2023-02-01T00:53:52;17.67;;;4.03;;
10335;SDS011;5213;53.548;9.930;2023-02-01T00:56:19;16.60;;;3.28;;
10335;SDS011;5213;53.548;9.930;2023-02-01T00:58:45;14.90;;;3.42;;
10335;SDS011;5213;53.548;9.930;2023-02-01T01:01:18;20.85;;;4.13;;
10335;SDS011;5213;53.548;9.930;2023-02-01T01:03:46;12.55;;;3.17;;
10335;SDS011;5213;53.548;9.930;2023-02-01T01:06:13;21.33;;;4.00;;
10335;SDS011;5213;53.548;9.930;2023-02-01T01:08:40;20.05;;;3.92;;
10335;SDS011;5213;53.548;9.930;2023-02-01T01:11:07;17.40;;;4.32;;
10335;SDS011;5213;53.548;9.930;2023-02-01T01:13:33;20.33;;;3.85;;
10335;SDS011;5213;53.548;9.930;2023-02-01T01:16:03;27.08;;;4.75;;
10335;SDS011;5213;53.548;9.930;2023-02-01T01:18:30;17.33;;;3.88;;
10335;SDS011;5213;53.548;9.930;2023-02-01T01:20:56;13.57;;;3.15;;
10335;SDS011;5213;53.548;9.930;2023-02-01T01:23:22;18.33;;;3.88;;
10335;SDS011;5213;53.548;9.930;2023-02-01T01:25:49;16.75;;;4.30;;
10335;SDS011;5213;53.548;9.930;2023-02-01T01:28:15;16.58;;;4.15;;
10335;SDS011;5213;53.548;9.930;2023-02-01T01:30:41;21.77;;;4.18;;
10335;SDS011;5213;53.548;9.930;2023-02-01T01:33:07;18.23;;;4.05;;
10335;SDS011;5213;53.548;9.930;2023-02-01T01:35:33;18.65;;;4.35;;
10335;SDS011;5213;53.548;9.930;2023-02-01T01:37:59;17.23;;;4.18;;
10335;SDS011;5213;53.548;9.930;2023-02-01T01:40:26;24.15;;;4.90;;
10335;SDS011;5213;53.548;9.930;2023-02-01T01:42:52;19.52;;;4.47;;
10335;SDS011;5213;53.548;9.930;2023-02-01T01:45:24;21.23;;;4.55;;
10335;SDS011;5213;53.548;9.930;2023-02-01T01:47:55;19.48;;;4.10;;
10335;SDS011;5213;53.548;9.930;2023-02-01T01:50:23;20.63;;;4.57;;
10335;SDS011;5213;53.548;9.930;2023-02-01T01:52:50;19.52;;;3.88;;
10335;SDS011;5213;53.548;9.930;2023-02-01T01:55:18;21.48;;;4.30;;
10335;SDS011;5213;53.548;9.930;2023-02-01T01:57:47;17.15;;;4.13;;
10335;SDS011;5213;53.548;9.930;2023-02-01T02:00:16;20.00;;;4.25;;
10335;SDS011;5213;53.548;9.930;2023-02-01T02:02:44;18.90;;;3.92;;
10335;SDS011;5213;53.548;9.930;2023-02-01T02:05:11;21.23;;;4.05;;
10335;SDS011;5213;53.548;9.930;2023-02-01T02:07:39;26.40;;;4.50;;
10335;SDS011;5213;53.548;9.930;2023-02-01T02:10:07;22.15;;;4.25;;
10335;SDS011;5213;53.548;9.930;2023-02-01T02:12:35;25.00;;;4.78;;
10335;SDS011;5213;53.548;9.930;2023-02-01T02:15:04;14.75;;;3.13;;
10335;SDS011;5213;53.548;9.930;2023-02-01T02:22:59;22.25;;;4.20;;
10335;SDS011;5213;53.548;9.930;2023-02-01T02:25:35;23.50;;;4.13;;
10335;SDS011;5213;53.548;9.930;2023-02-01T02:44:16;26.42;;;4.60;;
10335;SDS011;5213;53.548;9.930;2023-02-01T02:47:42;20.95;;;3.55;;
10335;SDS011;5213;53.548;9.930;2023-02-01T02:52:57;16.90;;;4.15;;
10335;SDS011;5213;53.548;9.930;2023-02-01T02:55:42;18.13;;;4.25;;
10335;SDS011;5213;53.548;9.930;2023-02-01T02:58:09;17.70;;;4.25;;
10335;SDS011;5213;53.548;9.930;2023-02-01T03:00:55;21.65;;;4.07;;
10335;SDS011;5213;53.548;9.930;2023-02-01T03:03:41;19.73;;;4.03;;
10335;SDS011;5213;53.548;9.930;2023-02-01T03:06:33;19.10;;;4.25;;
10335;SDS011;5213;53.548;9.930;2023-02-01T03:09:00;21.58;;;4.70;;
10335;SDS011;5213;53.548;9.930;2023-02-01T03:11:27;21.25;;;3.65;;
10335;SDS011;5213;53.548;9.930;2023-02-01T03:14:13;19.10;;;4.10;;
10335;SDS011;5213;53.548;9.930;2023-02-01T03:19:09;19.20;;;3.92;;
10335;SDS011;5213;53.548;9.930;2023-02-01T03:21:42;13.20;;;3.35;;
10335;SDS011;5213;53.548;9.930;2023-02-01T03:24:11;17.83;;;3.95;;
10335;SDS011;5213;53.548;9.930;2023-02-01T03:26:38;19.58;;;3.38;;
10335;SDS011;5213;53.548;9.930;2023-02-01T03:29:07;12.30;;;3.25;;
10335;SDS011;5213;53.548;9.930;2023-02-01T03:31:34;14.85;;;3.33;;
10335;SDS011;5213;53.548;9.930;2023-02-01T03:34:00;12.43;;;3.00;;
10335;SDS011;5213;53.548;9.930;2023-02-01T03:36:29;11.57;;;3.03;;
10335;SDS011;5213;53.548;9.930;2023-02-01T03:41:36;7.65;;;2.47;;
10335;SDS011;5213;53.548;9.930;2023-02-01T03:44:16;8.40;;;2.42;;
10335;SDS011;5213;53.548;9.930;2023-02-01T03:46:46;9.00;;;2.53;;
10335;SDS011;5213;53.548;9.930;2023-02-01T03:49:16;6.13;;;1.88;;
10335;SDS011;5213;53.548;9.930;2023-02-01T03:51:44;6.80;;;2.30;;
10335;SDS011;5213;53.548;9.930;2023-02-01T03:54:11;5.22;;;1.88;;
10335;SDS011;5213;53.548;9.930;2023-02-01T03:56:39;8.38;;;2.20;;
10335;SDS011;5213;53.548;9.930;2023-02-01T03:59:09;12.35;;;2.83;;
10335;SDS011;5213;53.548;9.930;2023-02-01T04:01:35;13.43;;;3.15;;
10335;SDS011;5213;53.548;9.930;2023-02-01T04:04:01;12.80;;;2.90;;
10335;SDS011;5213;53.548;9.930;2023-02-01T04:06:27;13.90;;;3.08;;
10335;SDS011;5213;53.548;9.930;2023-02-01T04:08:53;16.70;;;3.05;;
10335;SDS011;5213;53.548;9.930;2023-02-01T04:11:19;13.13;;;2.55;;
10335;SDS011;5213;53.548;9.930;2023-02-01T04:13:45;10.48;;;2.60;;
10335;SDS011;5213;53.548;9.930;2023-02-01T04:16:11;10.10;;;2.47;;
10335;SDS011;5213;53.548;9.930;2023-02-01T04:18:37;10.88;;;2.85;;
10335;SDS011;5213;53.548;9.930;2023-02-01T04:21:03;13.90;;;2.88;;
10335;SDS011;5213;53.548;9.930;2023-02-01T04:23:30;9.75;;;2.28;;
10335;SDS011;5213;53.548;9.930;2023-02-01T04:26:00;11.18;;;2.90;;
10335;SDS011;5213;53.548;9.930;2023-02-01T04:28:26;11.02;;;2.88;;
10335;SDS011;5213;53.548;9.930;2023-02-01T04:30:52;8.13;;;1.98;;
10335;SDS011;5213;53.548;9.930;2023-02-01T04:33:19;9.60;;;2.42;;
10335;SDS011;5213;53.548;9.930;2023-02-01T04:35:45;9.25;;;2.60;;
10335;SDS011;5213;53.548;9.930;2023-02-01T04:38:11;9.00;;;2.50;;
10335;SDS011;5213;53.548;9.930;2023-02-01T04:40:37;11.68;;;2.70;;
10335;SDS011;5213;53.548;9.930;2023-02-01T04:43:03;12.68;;;2.50;;
10335;SDS011;5213;53.548;9.930;2023-02-01T04:45:29;10.63;;;3.20;;
10335;SDS011;5213;53.548;9.930;2023-02-01T04:47:55;8.70;;;2.85;;
10335;SDS011;5213;53.548;9.930;2023-02-01T04:50:21;5.97;;;1.80;;
10335;SDS011;5213;53.548;9.930;2023-02-01T04:52:48;6.25;;;1.73;;
10335;SDS011;5213;53.548;9.930;2023-02-01T04:55:14;7.80;;;1.88;;
10335;SDS011;5213;53.548;9.930;2023-02-01T04:57:40;3.88;;;1.60;;
10335;SDS011;5213;53.548;9.930;2023-02-01T05:00:07;5.97;;;2.00;;
10335;SDS011;5213;53.548;9.930;2023-02-01T05:02:34;4.97;;;1.75;;
10335;SDS011;5213;53.548;9.930;2023-02-01T05:05:00;8.32;;;1.60;;
10335;SDS011;5213;53.548;9.930;2023-02-01T05:07:26;6.20;;;1.17;;
10335;SDS011;5213;53.548;9.930;2023-02-01T05:09:52;5.85;;;1.20;;
10335;SDS011;5213;53.548;9.930;2023-02-01T05:12:18;4.53;;;1.10;;
10335;SDS011;5213;53.548;9.930;2023-02-01T05:15:03;2.55;;;1.00;;
10335;SDS011;5213;53.548;9.930;2023-02-01T05:17:29;2.13;;;0.80;;
10335;SDS011;5213;53.548;9.930;2023-02-01T05:19:55;2.35;;;0.98;;
10335;SDS011;5213;53.548;9.930;2023-02-01T05:22:21;0.93;;;0.93;;
10335;SDS011;5213;53.548;9.930;2023-02-01T05:24:48;2.25;;;1.27;;
10335;SDS011;5213;53.548;9.930;2023-02-01T05:27:14;1.08;;;0.93;;
10335;SDS011;5213;53.548;9.930;2023-02-01T05:29:40;0.95;;;0.80;;
10335;SDS011;5213;53.548;9.930;2023-02-01T05:32:06;0.60;;;0.60;;
10335;SDS011;5213;53.548;9.930;2023-02-01T05:34:32;1.75;;;0.77;;
10335;SDS011;5213;53.548;9.930;2023-02-01T05:36:58;1.17;;;0.70;;
10335;SDS011;5213;53.548;9.930;2023-02-01T05:39:24;0.82;;;0.47;;
10335;SDS011;5213;53.548;9.930;2023-02-01T05:41:50;0.75;;;0.60;;
10335;SDS011;5213;53.548;9.930;2023-02-01T05:44:16;1.17;;;0.70;;
10335;SDS011;5213;53.548;9.930;2023-02-01T05:46:42;1.33;;;0.70;;
10335;SDS011;5213;53.548;9.930;2023-02-01T05:49:08;2.65;;;0.93;;
10335;SDS011;5213;53.548;9.930;2023-02-01T05:51:34;0.68;;;0.68;;
10335;SDS011;5213;53.548;9.930;2023-02-01T05:54:00;0.63;;;0.63;;
10335;SDS011;5213;53.548;9.930;2023-02-01T05:56:26;0.57;;;0.57;;
10335;SDS011;5213;53.548;9.930;2023-02-01T05:58:52;1.45;;;0.43;;
10335;SDS011;5213;53.548;9.930;2023-02-01T06:01:18;1.85;;;0.70;;
10335;SDS011;5213;53.548;9.930;2023-02-01T06:03:44;1.70;;;0.60;;
10335;SDS011;5213;53.548;9.930;2023-02-01T06:06:10;0.60;;;0.57;;
10335;SDS011;5213;53.548;9.930;2023-02-01T06:08:36;2.22;;;1.00;;
10335;SDS011;5213;53.548;9.930;2023-02-01T06:11:05;1.80;;;0.90;;
10335;SDS011;5213;53.548;9.930;2023-02-01T06:13:31;1.75;;;1.00;;
10335;SDS011;5213;53.548;9.930;2023-02-01T06:15:57;2.40;;;1.00;;
10335;SDS011;5213;53.548;9.930;2023-02-01T06:18:24;1.63;;;1.02;;
10335;SDS011;5213;53.548;9.930;2023-02-01T06:20:56;3.40;;;1.55;;
10335;SDS011;5213;53.548;9.930;2023-02-01T06:23:25;3.00;;;1.20;;
10335;SDS011;5213;53.548;9.930;2023-02-01T06:25:51;4.25;;;1.15;;
10335;SDS011;5213;53.548;9.930;2023-02-01T06:28:17;3.67;;;1.30;;
10335;SDS011;5213;53.548;9.930;2023-02-01T06:30:44;2.45;;;1.25;;
10335;SDS011;5213;53.548;9.930;2023-02-01T06:33:11;6.65;;;1.75;;
10335;SDS011;5213;53.548;9.930;2023-02-01T06:35:39;2.13;;;1.38;;
10335;SDS011;5213;53.548;9.930;2023-02-01T06:38:07;3.47;;;1.35;;
10335;SDS011;5213;53.548;9.930;2023-02-01T06:40:33;4.15;;;1.42;;
10335;SDS011;5213;53.548;9.930;2023-02-01T06:43:00;3.58;;;1.40;;
10335;SDS011;5213;53.548;9.930;2023-02-01T06:45:26;6.07;;;2.15;;
10335;SDS011;5213;53.548;9.930;2023-02-01T06:47:52;5.03;;;1.58;;
10335;SDS011;5213;53.548;9.930;2023-02-01T06:50:18;9.77;;;2.22;;
10335;SDS011;5213;53.548;9.930;2023-02-01T06:52:44;8.30;;;1.67;;
10335;SDS011;5213;53.548;9.930;2023-02-01T06:55:10;5.68;;;1.58;;
10335;SDS011;5213;53.548;9.930;2023-02-01T06:57:36;8.82;;;2.13;;
10335;SDS011;5213;53.548;9.930;2023-02-01T07:00:03;11.57;;;2.00;;
10335;SDS011;5213;53.548;9.930;2023-02-01T07:02:29;8.80;;;1.80;;
10335;SDS011;5213;53.548;9.930;2023-02-01T07:04:55;12.40;;;2.50;;
10335;SDS011;5213;53.548;9.930;2023-02-01T07:07:21;10.90;;;2.35;;
10335;SDS011;5213;53.548;9.930;2023-02-01T07:09:48;10.00;;;2.67;;
10335;SDS011;5213;53.548;9.930;2023-02-01T07:12:14;17.75;;;3.22;;
10335;SDS011;5213;53.548;9.930;2023-02-01T07:14:40;14.18;;;2.70;;
10335;SDS011;5213;53.548;9.930;2023-02-01T07:17:06;15.05;;;3.25;;
10335;SDS011;5213;53.548;9.930;2023-02-01T07:19:32;11.60;;;2.88;;
10335;SDS011;5213;53.548;9.930;2023-02-01T07:21:58;16.92;;;2.88;;
10335;SDS011;5213;53.548;9.930;2023-02-01T07:24:24;11.80;;;3.22;;
10335;SDS011;5213;53.548;9.930;2023-02-01T07:26:50;18.65;;;3.42;;
10335;SDS011;5213;53.548;9.930;2023-02-01T07:29:17;19.58;;;4.13;;
10335;SDS011;5213;53.548;9.930;2023-02-01T07:31:43;16.40;;;3.47;;
10335;SDS011;5213;53.548;9.930;2023-02-01T07:34:09;17.88;;;4.32;;
10335;SDS011;5213;53.548;9.930;2023-02-01T07:36:35;14.80;;;3.65;;
10335;SDS011;5213;53.548;9.930;2023-02-01T07:39:04;17.17;;;3.95;;
10335;SDS011;5213;53.548;9.930;2023-02-01T07:41:30;20.13;;;3.58;;
10335;SDS011;5213;53.548;9.930;2023-02-01T07:43:57;14.60;;;3.40;;
10335;SDS011;5213;53.548;9.930;2023-02-01T07:46:23;18.20;;;3.65;;
10335;SDS011;5213;53.548;9.930;2023-02-01T07:48:49;16.70;;;4.13;;
10335;SDS011;5213;53.548;9.930;2023-02-01T07:51:15;14.48;;;3.60;;
10335;SDS011;5213;53.548;9.930;2023-02-01T07:53:42;18.20;;;4.28;;
10335;SDS011;5213;53.548;9.930;2023-02-01T07:56:16;17.08;;;4.05;;
10335;SDS011;5213;53.548;9.930;2023-02-01T07:58:42;23.38;;;4.00;;
10335;SDS011;5213;53.548;9.930;2023-02-01T08:01:18;14.32;;;3.92;;
10335;SDS011;5213;53.548;9.930;2023-02-01T08:03:45;20.88;;;3.85;;
10335;SDS011;5213;53.548;9.930;2023-02-01T08:06:11;15.25;;;3.80;;
10335;SDS011;5213;53.548;9.930;2023-02-01T08:08:37;23.17;;;4.28;;
10335;SDS011;5213;53.548;9.930;2023-02-01T08:11:04;13.40;;;3.58;;
10335;SDS011;5213;53.548;9.930;2023-02-01T08:13:30;21.20;;;4.00;;
10335;SDS011;5213;53.548;9.930;2023-02-01T08:15:57;13.50;;;3.20;;
10335;SDS011;5213;53.548;9.930;2023-02-01T08:18:23;14.30;;;4.00;;
10335;SDS011;5213;53.548;9.930;2023-02-01T08:20:49;17.27;;;4.18;;
10335;SDS011;5213;53.548;9.930;2023-02-01T08:23:16;17.13;;;3.03;;
10335;SDS011;5213;53.548;9.930;2023-02-01T08:25:42;18.20;;;3.92;;
10335;SDS011;5213;53.548;9.930;2023-02-01T08:28:08;20.52;;;4.15;;
10335;SDS011;5213;53.548;9.930;2023-02-01T08:30:36;18.08;;;3.80;;
10335;SDS011;5213;53.548;9.930;2023-02-01T08:33:02;15.48;;;3.65;;
10335;SDS011;5213;53.548;9.930;2023-02-01T08:35:28;16.83;;;4.13;;
10335;SDS011;5213;53.548;9.930;2023-02-01T08:37:54;18.45;;;4.20;;
10335;SDS011;5213;53.548;9.930;2023-02-01T08:40:20;15.52;;;3.67;;
10335;SDS011;5213;53.548;9.930;2023-02-01T08:42:46;16.30;;;3.35;;
10335;SDS011;5213;53.548;9.930;2023-02-01T08:45:15;18.13;;;3.80;;
10335;SDS011;5213;53.548;9.930;2023-02-01T08:47:41;14.65;;;3.47;;
10335;SDS011;5213;53.548;9.930;2023-02-01T08:50:08;14.35;;;4.05;;
10335;SDS011;5213;53.548;9.930;2023-02-01T08:52:34;21.73;;;4.20;;
10335;SDS011;5213;53.548;9.930;2023-02-01T08:55:00;13.82;;;3.63;;
10335;SDS011;5213;53.548;9.930;2023-02-01T08:57:26;19.80;;;4.13;;
10335;SDS011;5213;53.548;9.930;2023-02-01T08:59:53;14.40;;;3.42;;
10335;SDS011;5213;53.548;9.930;2023-02-01T09:02:19;17.77;;;3.40;;
10335;SDS011;5213;53.548;9.930;2023-02-01T09:04:45;13.82;;;3.38;;
10335;SDS011;5213;53.548;9.930;2023-02-01T09:07:11;14.50;;;3.47;;
10335;SDS011;5213;53.548;9.930;2023-02-01T09:09:38;15.27;;;3.40;;
10335;SDS011;5213;53.548;9.930;2023-02-01T09:12:04;17.50;;;3.80;;
10335;SDS011;5213;53.548;9.930;2023-02-01T09:14:30;11.40;;;2.40;;
10335;SDS011;5213;53.548;9.930;2023-02-01T09:16:56;17.45;;;3.35;;
10335;SDS011;5213;53.548;9.930;2023-02-01T09:19:22;17.88;;;3.97;;
10335;SDS011;5213;53.548;9.930;2023-02-01T09:21:48;18.63;;;3.65;;
10335;SDS011;5213;53.548;9.930;2023-02-01T09:24:15;13.05;;;3.55;;
10335;SDS011;5213;53.548;9.930;2023-02-01T09:26:41;11.43;;;3.13;;
10335;SDS011;5213;53.548;9.930;2023-02-01T09:29:07;12.60;;;3.55;;
10335;SDS011;5213;53.548;9.930;2023-02-01T09:31:36;14.23;;;3.35;;
10335;SDS011;5213;53.548;9.930;2023-02-01T09:34:02;17.67;;;3.60;;
10335;SDS011;5213;53.548;9.930;2023-02-01T09:36:28;16.60;;;3.83;;
10335;SDS011;5213;53.548;9.930;2023-02-01T09:38:54;16.67;;;3.78;;
10335;SDS011;5213;53.548;9.930;2023-02-01T09:44:14;11.82;;;3.50;;
10335;SDS011;5213;53.548;9.930;2023-02-01T09:46:42;17.40;;;3.38;;
10335;SDS011;5213;53.548;9.930;2023-02-01T09:49:12;14.32;;;3.40;;
10335;SDS011;5213;53.548;9.930;2023-02-01T09:51:41;13.35;;;4.10;;
10335;SDS011;5213;53.548;9.930;2023-02-01T09:56:48;15.00;;;3.58;;
10335;SDS011;5213;53.548;9.930;2023-02-01T10:02:00;11.85;;;3.30;;
10335;SDS011;5213;53.548;9.930;2023-02-01T10:04:27;13.52;;;3.30;;
10335;SDS011;5213;53.548;9.930;2023-02-01T10:09:25;16.85;;;3.20;;
10335;SDS011;5213;53.548;9.930;2023-02-01T10:27:36;12.05;;;2.97;;
10335;SDS011;5213;53.548;9.930;2023-02-01T10:32:39;13.63;;;3.10;;
10335;SDS011;5213;53.548;9.930;2023-02-01T10:35:25;14.75;;;3.13;;
10335;SDS011;5213;53.548;9.930;2023-02-01T10:38:05;11.45;;;3.28;;
10335;SDS011;5213;53.548;9.930;2023-02-01T10:40:38;13.10;;;3.10;;
10335;SDS011;5213;53.548;9.930;2023-02-01T10:43:04;14.32;;;3.92;;
10335;SDS011;5213;53.548;9.930;2023-02-01T10:45:30;12.60;;;3.15;;
10335;SDS011;5213;53.548;9.930;2023-02-01T10:47:58;15.32;;;3.13;;
10335;SDS011;5213;53.548;9.930;2023-02-01T10:50:48;15.63;;;3.67;;
10335;SDS011;5213;53.548;9.930;2023-02-01T10:58:16;16.98;;;3.47;;
10335;SDS011;5213;53.548;9.930;2023-02-01T11:00:53;10.77;;;3.25;;
10335;SDS011;5213;53.548;9.930;2023-02-01T11:06:26;13.85;;;3.28;;
10335;SDS011;5213;53.548;9.930;2023-02-01T11:08:54;14.20;;;3.05;;
10335;SDS011;5213;53.548;9.930;2023-02-01T11:11:21;12.15;;;3.47;;
10335;SDS011;5213;53.548;9.930;2023-02-01T11:13:51;8.80;;;2.50;;
10335;SDS011;5213;53.548;9.930;2023-02-01T11:16:17;9.63;;;3.30;;
10335;SDS011;5213;53.548;9.930;2023-02-01T11:18:44;12.25;;;3.58;;
10335;SDS011;5213;53.548;9.930;2023-02-01T11:21:14;13.38;;;3.03;;
10335;SDS011;5213;53.548;9.930;2023-02-01T11:23:41;12.40;;;2.50;;
10335;SDS011;5213;53.548;9.930;2023-02-01T11:28:38;15.23;;;3.15;;
10335;SDS011;5213;53.548;9.930;2023-02-01T11:31:07;12.30;;;2.70;;
10335;SDS011;5213;53.548;9.930;2023-02-01T11:33:35;8.27;;;2.70;;
10335;SDS011;5213;53.548;9.930;2023-02-01T11:36:06;14.93;;;3.50;;
10335;SDS011;5213;53.548;9.930;2023-02-01T11:38:33;11.45;;;2.95;;
10335;SDS011;5213;53.548;9.930;2023-02-01T11:41:10;12.98;;;2.55;;
10335;SDS011;5213;53.548;9.930;2023-02-01T11:43:37;11.73;;;2.80;;
10335;SDS011;5213;53.548;9.930;2023-02-01T11:46:03;12.57;;;3.83;;
10335;SDS011;5213;53.548;9.930;2023-02-01T11:48:30;14.40;;;2.85;;
10335;SDS011;5213;53.548;9.930;2023-02-01T11:51:01;11.15;;;2.58;;
10335;SDS011;5213;53.548;9.930;2023-02-01T12:12:13;7.20;;;2.65;;
10335;SDS011;5213;53.548;9.930;2023-02-01T12:22:29;8.32;;;2.55;;
10335;SDS011;5213;53.548;9.930;2023-02-01T12:30:10;4.93;;;1.52;;
10335;SDS011;5213;53.548;9.930;2023-02-01T12:45:37;1.23;;;0.77;;
10335;SDS011;5213;53.548;9.930;2023-02-01T12:48:18;2.10;;;0.80;;
10335;SDS011;5213;53.548;9.930;2023-02-01T12:50:47;1.25;;;1.00;;
10335;SDS011;5213;53.548;9.930;2023-02-01T12:55:52;2.50;;;1.00;;
10335;SDS011;5213;53.548;9.930;2023-02-01T13:01:05;0.90;;;0.90;;
10335;SDS011;5213;53.548;9.930;2023-02-01T13:03:44;0.88;;;0.80;;
10335;SDS011;5213;53.548;9.930;2023-02-01T13:06:17;1.98;;;1.00;;
10335;SDS011;5213;53.548;9.930;2023-02-01T13:11:53;0.75;;;0.75;;
10335;SDS011;5213;53.548;9.930;2023-02-01T13:18:54;0.75;;;0.65;;
10335;SDS011;5213;53.548;9.930;2023-02-01T13:21:24;1.90;;;0.93;;
10335;SDS011;5213;53.548;9.930;2023-02-01T13:23:51;1.17;;;0.93;;
10335;SDS011;5213;53.548;9.930;2023-02-01T13:26:18;1.95;;;0.75;;
10335;SDS011;5213;53.548;9.930;2023-02-01T13:28:45;3.78;;;0.80;;
10335;SDS011;5213;53.548;9.930;2023-02-01T13:34:44;1.25;;;1.00;;
10335;SDS011;5213;53.548;9.930;2023-02-01T13:39:43;0.70;;;0.70;;
10335;SDS011;5213;53.548;9.930;2023-02-01T13:47:16;1.20;;;0.90;;
10335;SDS011;5213;53.548;9.930;2023-02-01T13:49:44;0.73;;;0.73;;
10335;SDS011;5213;53.548;9.930;2023-02-01T13:52:25;2.05;;;1.08;;
10335;SDS011;5213;53.548;9.930;2023-02-01T13:57:37;2.00;;;1.10;;
10335;SDS011;5213;53.548;9.930;2023-02-01T14:00:08;4.20;;;1.30;;
10335;SDS011;5213;53.548;9.930;2023-02-01T14:05:04;3.50;;;1.08;;
10335;SDS011;5213;53.548;9.930;2023-02-01T14:07:30;1.67;;;1.10;;
10335;SDS011;5213;53.548;9.930;2023-02-01T14:09:56;3.47;;;0.93;;
10335;SDS011;5213;53.548;9.930;2023-02-01T14:15:20;1.95;;;1.00;;
10335;SDS011;5213;53.548;9.930;2023-02-01T14:17:48;6.75;;;1.25;;
10335;SDS011;5213;53.548;9.930;2023-02-01T14:20:36;5.13;;;1.45;;
10335;SDS011;5213;53.548;9.930;2023-02-01T14:23:01;6.57;;;1.52;;
10335;SDS011;5213;53.548;9.930;2023-02-01T14:25:31;5.65;;;1.58;;
10335;SDS011;5213;53.548;9.930;2023-02-01T14:27:58;6.75;;;1.50;;
10335;SDS011;5213;53.548;9.930;2023-02-01T14:30:24;4.40;;;1.27;;
10335;SDS011;5213;53.548;9.930;2023-02-01T14:32:50;4.57;;;1.70;;
10335;SDS011;5213;53.548;9.930;2023-02-01T14:35:20;5.38;;;1.67;;
10335;SDS011;5213;53.548;9.930;2023-02-01T14:37:47;9.27;;;1.45;;
10335;SDS011;5213;53.548;9.930;2023-02-01T14:40:19;2.00;;;1.10;;
10335;SDS011;5213;53.548;9.930;2023-02-01T14:42:47;3.22;;;1.25;;
10335;SDS011;5213;53.548;9.930;2023-02-01T14:47:49;3.38;;;1.27;;
10335;SDS011;5213;53.548;9.930;2023-02-01T15:01:01;6.57;;;1.65;;
10335;SDS011;5213;53.548;9.930;2023-02-01T15:06:17;10.48;;;2.42;;
10335;SDS011;5213;53.548;9.930;2023-02-01T15:08:45;8.43;;;1.98;;
10335;SDS011;5213;53.548;9.930;2023-02-01T15:11:14;6.75;;;1.92;;
10335;SDS011;5213;53.548;9.930;2023-02-01T15:13:40;8.63;;;2.67;;
10335;SDS011;5213;53.548;9.930;2023-02-01T15:16:14;5.75;;;1.67;;
10335;SDS011;5213;53.548;9.930;2023-02-01T15:18:40;10.25;;;1.95;;
10335;SDS011;5213;53.548;9.930;2023-02-01T15:21:15;6.25;;;1.70;;
10335;SDS011;5213;53.548;9.930;2023-02-01T15:23:41;9.52;;;1.85;;
10335;SDS011;5213;53.548;9.930;2023-02-01T15:26:07;8.30;;;1.98;;
10335;SDS011;5213;53.548;9.930;2023-02-01T15:28:33;6.32;;;2.00;;
10335;SDS011;5213;53.548;9.930;2023-02-01T15:31:04;6.95;;;1.85;;
10335;SDS011;5213;53.548;9.930;2023-02-01T15:33:30;9.25;;;1.88;;
10335;SDS011;5213;53.548;9.930;2023-02-01T15:38:38;8.65;;;2.20;;
10335;SDS011;5213;53.548;9.930;2023-02-01T15:43:35;6.97;;;1.77;;
10335;SDS011;5213;53.548;9.930;2023-02-01T15:46:03;4.95;;;2.08;;
10335;SDS011;5213;53.548;9.930;2023-02-01T15:48:35;6.32;;;2.08;;
10335;SDS011;5213;53.548;9.930;2023-02-01T15:51:02;5.72;;;1.98;;
10335;SDS011;5213;53.548;9.930;2023-02-01T15:53:29;6.53;;;2.03;;
10335;SDS011;5213;53.548;9.930;2023-02-01T15:55:58;8.63;;;2.63;;
10335;SDS011;5213;53.548;9.930;2023-02-01T15:58:25;7.40;;;2.08;;
10335;SDS011;5213;53.548;9.930;2023-02-01T16:00:59;10.82;;;2.65;;
10335;SDS011;5213;53.548;9.930;2023-02-01T16:03:36;9.52;;;2.80;;
10335;SDS011;5213;53.548;9.930;2023-02-01T16:11:29;14.00;;;2.60;;
10335;SDS011;5213;53.548;9.930;2023-02-01T16:13:56;13.00;;;2.72;;
10335;SDS011;5213;53.548;9.930;2023-02-01T16:16:23;10.75;;;2.70;;
10335;SDS011;5213;53.548;9.930;2023-02-01T16:18:49;12.95;;;2.88;;
10335;SDS011;5213;53.548;9.930;2023-02-01T16:21:15;12.20;;;2.75;;
10335;SDS011;5213;53.548;9.930;2023-02-01T16:23:41;9.23;;;2.70;;
10335;SDS011;5213;53.548;9.930;2023-02-01T16:26:07;11.77;;;3.97;;
10335;SDS011;5213;53.548;9.930;2023-02-01T16:28:33;12.93;;;3.22;;
10335;SDS011;5213;53.548;9.930;2023-02-01T16:31:00;9.93;;;2.90;;
10335;SDS011;5213;53.548;9.930;2023-02-01T16:33:26;16.30;;;3.13;;
10335;SDS011;5213;53.548;9.930;2023-02-01T16:35:52;10.73;;;2.88;;
10335;SDS011;5213;53.548;9.930;2023-02-01T16:38:24;12.48;;;3.10;;
10335;SDS011;5213;53.548;9.930;2023-02-01T16:40:51;16.25;;;3.33;;
10335;SDS011;5213;53.548;9.930;2023-02-01T16:43:21;10.20;;;2.75;;
10335;SDS011;5213;53.548;9.930;2023-02-01T16:45:48;16.55;;;3.28;;
10335;SDS011;5213;53.548;9.930;2023-02-01T16:48:19;17.02;;;3.00;;
10335;SDS011;5213;53.548;9.930;2023-02-01T16:50:47;14.60;;;3.15;;
10335;SDS011;5213;53.548;9.930;2023-02-01T16:53:15;19.35;;;4.00;;
10335;SDS011;5213;53.548;9.930;2023-02-01T16:55:42;14.00;;;3.58;;
10335;SDS011;5213;53.548;9.930;2023-02-01T16:58:08;15.13;;;3.55;;
10335;SDS011;5213;53.548;9.930;2023-02-01T17:00:34;14.88;;;2.97;;
10335;SDS011;5213;53.548;9.930;2023-02-01T17:03:02;16.00;;;3.90;;
10335;SDS011;5213;53.548;9.930;2023-02-01T17:05:28;15.82;;;3.45;;
10335;SDS011;5213;53.548;9.930;2023-02-01T17:07:55;30.00;;;3.92;;
10335;SDS011;5213;53.548;9.930;2023-02-01T17:10:23;22.70;;;4.38;;
10335;SDS011;5213;53.548;9.930;2023-02-01T17:12:50;17.38;;;3.80;;
10335;SDS011;5213;53.548;9.930;2023-02-01T17:15:16;19.05;;;4.15;;
10335;SDS011;5213;53.548;9.930;2023-02-01T17:17:42;21.73;;;4.30;;
10335;SDS011;5213;53.548;9.930;2023-02-01T17:20:19;21.92;;;5.15;;
10335;SDS011;5213;53.548;9.930;2023-02-01T17:22:46;16.58;;;4.22;;
10335;SDS011;5213;53.548;9.930;2023-02-01T17:25:16;22.05;;;4.45;;
10335;SDS011;5213;53.548;9.930;2023-02-01T17:27:42;15.00;;;3.50;;
10335;SDS011;5213;53.548;9.930;2023-02-01T17:30:09;20.20;;;4.53;;
10335;SDS011;5213;53.548;9.930;2023-02-01T17:32:36;23.05;;;4.68;;
10335;SDS011;5213;53.548;9.930;2023-02-01T17:35:03;20.00;;;4.07;;
10335;SDS011;5213;53.548;9.930;2023-02-01T17:37:30;19.95;;;3.97;;
10335;SDS011;5213;53.548;9.930;2023-02-01T17:39:57;13.73;;;3.72;;
10335;SDS011;5213;53.548;9.930;2023-02-01T17:42:24;16.42;;;3.80;;
10335;SDS011;5213;53.548;9.930;2023-02-01T17:45:01;20.48;;;4.40;;
10335;SDS011;5213;53.548;9.930;2023-02-01T17:47:27;13.93;;;3.55;;
10335;SDS011;5213;53.548;9.930;2023-02-01T17:49:53;17.58;;;3.60;;